createdAt,value
2022-12-23T00:01:44.048Z,19.85
2022-12-23T00:04:10.536Z,14.45
2022-12-23T00:06:36.895Z,16.73
2022-12-23T00:09:03.358Z,18.27
2022-12-23T00:11:29.939Z,15.32
2022-12-23T00:14:21.074Z,13.68
2022-12-23T00:16:49.165Z,12.85
2022-12-23T00:19:15.798Z,13.80
2022-12-23T00:21:42.129Z,12.40
2022-12-23T00:24:08.514Z,11.43
2022-12-23T00:26:34.943Z,10.57
2022-12-23T00:29:01.308Z,11.43
2022-12-23T00:31:27.771Z,12.20
2022-12-23T00:33:54.396Z,10.48
2022-12-23T00:36:20.873Z,11.07
2022-12-23T00:39:06.209Z,12.32
2022-12-23T00:41:51.076Z,11.77
2022-12-23T00:44:17.640Z,11.18
2022-12-23T00:46:44.047Z,10.88
2022-12-23T00:49:33.049Z,9.88
2022-12-23T00:52:00.019Z,11.95
2022-12-23T00:54:26.560Z,11.55
2022-12-23T00:56:53.131Z,12.65
2022-12-23T00:59:19.574Z,12.00
2022-12-23T01:02:04.755Z,11.82
2022-12-23T01:04:50.046Z,12.38
2022-12-23T01:07:16.621Z,14.93
2022-12-23T01:09:43.115Z,13.65
2022-12-23T01:12:09.509Z,14.80
2022-12-23T01:14:36.381Z,14.05
2022-12-23T01:17:03.022Z,14.57
2022-12-23T01:19:29.576Z,15.13
2022-12-23T01:21:55.936Z,14.70
2022-12-23T01:24:22.605Z,13.88
2022-12-23T01:26:48.955Z,14.55
2022-12-23T01:29:15.373Z,15.43
2022-12-23T01:31:41.865Z,16.52
2022-12-23T01:34:08.337Z,15.77
2022-12-23T01:36:34.855Z,16.40
2022-12-23T01:39:01.348Z,15.85
2022-12-23T01:41:47.674Z,15.38
2022-12-23T01:44:32.903Z,14.93
2022-12-23T01:46:59.377Z,17.73
2022-12-23T01:49:25.726Z,18.45
2022-12-23T01:51:52.120Z,15.35
2022-12-23T01:54:18.548Z,18.23
2022-12-23T01:56:45.230Z,17.52
2022-12-23T01:59:34.208Z,19.05
2022-12-23T02:02:19.860Z,22.48
2022-12-23T02:04:46.787Z,22.52
2022-12-23T02:07:31.906Z,20.25
2022-12-23T02:09:58.536Z,20.58
2022-12-23T02:12:43.919Z,19.33
2022-12-23T02:15:55.298Z,19.50
2022-12-23T02:18:40.555Z,20.27
2022-12-23T02:21:11.262Z,23.27
2022-12-23T02:24:00.947Z,21.80
2022-12-23T02:26:27.282Z,19.35
2022-12-23T02:28:53.616Z,24.05
2022-12-23T02:31:43.359Z,20.65
2022-12-23T02:34:12.818Z,20.67
2022-12-23T02:36:46.301Z,20.33
2022-12-23T02:39:26.820Z,19.40
2022-12-23T02:41:55.901Z,21.23
2022-12-23T02:44:23.464Z,20.23
2022-12-23T02:46:51.590Z,19.63
2022-12-23T02:49:25.218Z,20.20
2022-12-23T02:51:53.948Z,19.75
2022-12-23T02:54:26.929Z,20.45
2022-12-23T02:56:54.138Z,22.67
2022-12-23T02:59:22.797Z,19.17
2022-12-23T03:01:49.645Z,24.42
2022-12-23T03:04:16.140Z,19.67
2022-12-23T03:06:44.364Z,21.25
2022-12-23T03:09:16.037Z,27.20
2022-12-23T03:11:45.349Z,24.55
2022-12-23T03:14:21.042Z,29.52
2022-12-23T03:16:47.571Z,25.08
2022-12-23T03:19:18.692Z,25.00
2022-12-23T03:22:03.701Z,22.45
2022-12-23T03:24:40.803Z,25.77
2022-12-23T03:27:15.819Z,24.83
2022-12-23T03:29:57.785Z,25.52
2022-12-23T03:32:25.972Z,24.40
2022-12-23T03:34:54.263Z,23.90
2022-12-23T03:37:22.079Z,22.73
2022-12-23T03:39:52.682Z,24.05
2022-12-23T03:42:29.764Z,24.02
2022-12-23T03:45:36.475Z,24.70
2022-12-23T03:47:53.370Z,26.10
2022-12-23T03:50:20.690Z,23.40
2022-12-23T03:52:52.687Z,22.45
2022-12-23T03:55:22.066Z,23.52
2022-12-23T03:57:53.848Z,22.55
2022-12-23T04:00:20.592Z,27.60
2022-12-23T04:03:03.866Z,24.63
2022-12-23T04:05:32.875Z,24.10
2022-12-23T04:08:10.294Z,26.55
2022-12-23T04:10:36.769Z,25.58
2022-12-23T04:13:03.234Z,27.40
2022-12-23T04:15:30.027Z,28.45
2022-12-23T04:17:57.165Z,27.17
2022-12-23T04:20:24.002Z,28.42
2022-12-23T04:22:50.450Z,26.48
2022-12-23T04:25:17.574Z,29.00
2022-12-23T04:27:43.971Z,20.73
2022-12-23T04:30:10.973Z,24.60
2022-12-23T04:32:37.881Z,23.10
2022-12-23T04:35:04.441Z,22.90
2022-12-23T04:37:30.806Z,19.50
2022-12-23T04:39:57.223Z,17.92
2022-12-23T04:42:23.880Z,20.20
2022-12-23T04:44:50.517Z,19.73
2022-12-23T04:47:17.064Z,19.25
2022-12-23T04:49:43.434Z,17.25
2022-12-23T04:52:09.829Z,21.02
2022-12-23T04:54:39.318Z,20.60
2022-12-23T04:57:10.463Z,22.00
2022-12-23T04:59:36.843Z,19.92
2022-12-23T05:02:03.402Z,18.60
2022-12-23T05:04:30.083Z,20.33
2022-12-23T05:06:56.448Z,21.25
2022-12-23T05:09:22.853Z,19.67
2022-12-23T05:11:49.231Z,24.13
2022-12-23T05:14:15.629Z,22.60
2022-12-23T05:16:42.087Z,21.30
2022-12-23T05:19:09.155Z,23.48
2022-12-23T05:21:35.651Z,24.42
2022-12-23T05:24:02.275Z,26.73
2022-12-23T05:26:28.777Z,28.38
2022-12-23T05:28:55.591Z,26.33
2022-12-23T05:31:22.354Z,26.95
2022-12-23T05:33:48.854Z,28.73
2022-12-23T05:36:15.319Z,31.02
2022-12-23T05:38:41.816Z,28.30
2022-12-23T05:41:08.229Z,27.48
2022-12-23T05:43:34.641Z,28.80
2022-12-23T05:46:01.126Z,31.70
2022-12-23T05:48:27.620Z,27.27
2022-12-23T05:50:54.036Z,30.92
2022-12-23T05:53:20.995Z,31.02
2022-12-23T05:55:47.466Z,31.73
2022-12-23T05:58:13.932Z,31.35
2022-12-23T06:00:40.294Z,33.35
2022-12-23T06:03:07.014Z,28.67
2022-12-23T06:05:33.807Z,29.05
2022-12-23T06:08:00.218Z,32.45
2022-12-23T06:10:26.583Z,33.15
2022-12-23T06:12:52.965Z,36.22
2022-12-23T06:15:19.442Z,31.42
2022-12-23T06:17:46.106Z,32.08
2022-12-23T06:20:19.889Z,36.42
2022-12-23T06:22:47.064Z,35.38
2022-12-23T06:25:13.545Z,34.47
2022-12-23T06:27:39.988Z,34.65
2022-12-23T06:30:07.248Z,31.92
2022-12-23T06:32:38.150Z,34.55
2022-12-23T06:35:05.822Z,38.10
2022-12-23T06:37:32.435Z,37.97
2022-12-23T06:39:58.955Z,36.80
2022-12-23T06:42:25.328Z,37.15
2022-12-23T06:44:51.734Z,33.70
2022-12-23T06:47:18.117Z,30.70
2022-12-23T06:49:44.510Z,33.67
2022-12-23T06:52:10.861Z,29.98
2022-12-23T06:54:37.344Z,30.90
2022-12-23T06:57:03.774Z,26.95
2022-12-23T06:59:30.814Z,30.02
2022-12-23T07:01:57.329Z,27.27
2022-12-23T07:04:23.736Z,28.52
2022-12-23T07:06:50.121Z,27.48
2022-12-23T07:09:16.525Z,28.08
2022-12-23T07:11:42.951Z,27.45
2022-12-23T07:14:09.451Z,20.85
2022-12-23T07:16:35.871Z,22.25
2022-12-23T07:19:03.045Z,19.75
2022-12-23T07:21:30.217Z,17.17
2022-12-23T07:23:56.939Z,16.58
2022-12-23T07:26:23.549Z,16.67
2022-12-23T07:28:50.219Z,17.08
2022-12-23T07:31:16.825Z,16.33
2022-12-23T07:33:43.532Z,16.02
2022-12-23T07:36:10.304Z,15.68
2022-12-23T07:38:36.980Z,17.80
2022-12-23T07:41:04.030Z,13.48
2022-12-23T07:43:30.529Z,14.45
2022-12-23T07:46:00.483Z,14.68
2022-12-23T07:48:27.545Z,14.98
2022-12-23T07:50:59.547Z,13.95
2022-12-23T07:53:25.939Z,15.55
2022-12-23T07:55:56.393Z,13.57
2022-12-23T07:58:23.439Z,15.57
2022-12-23T08:00:49.842Z,17.45
2022-12-23T08:03:16.388Z,16.20
2022-12-23T08:05:42.851Z,16.42
2022-12-23T08:08:09.221Z,15.30
2022-12-23T08:10:35.575Z,14.68
2022-12-23T08:13:02.097Z,16.60
2022-12-23T08:15:28.483Z,15.20
2022-12-23T08:17:55.897Z,16.02
2022-12-23T08:20:22.415Z,13.45
2022-12-23T08:22:49.058Z,14.65
2022-12-23T08:25:15.481Z,16.50
2022-12-23T08:27:41.821Z,18.92
2022-12-23T08:30:08.559Z,16.58
2022-12-23T08:32:34.975Z,16.52
2022-12-23T08:35:01.339Z,15.60
2022-12-23T08:37:28.105Z,16.35
2022-12-23T08:39:54.452Z,15.57
2022-12-23T08:42:20.851Z,15.32
2022-12-23T08:44:47.219Z,18.55
2022-12-23T08:47:13.664Z,19.08
2022-12-23T08:49:40.110Z,21.20
2022-12-23T08:52:06.527Z,24.80
2022-12-23T08:54:33.012Z,23.63
2022-12-23T08:56:59.362Z,29.10
2022-12-23T08:59:25.703Z,31.63
2022-12-23T09:01:52.522Z,29.73
2022-12-23T09:04:19.144Z,34.22
2022-12-23T09:06:45.631Z,34.55
2022-12-23T09:09:14.283Z,35.28
2022-12-23T09:11:40.745Z,30.92
2022-12-23T09:14:08.717Z,34.05
2022-12-23T09:16:35.412Z,31.05
2022-12-23T09:19:01.943Z,37.75
2022-12-23T09:21:28.326Z,37.85
2022-12-23T09:23:54.707Z,34.35
2022-12-23T09:26:22.742Z,36.97
2022-12-23T09:28:49.204Z,38.50
2022-12-23T09:31:15.667Z,39.55
2022-12-23T09:33:42.614Z,37.63
2022-12-23T09:36:09.304Z,37.30
2022-12-23T09:38:36.189Z,38.85
2022-12-23T09:41:03.482Z,40.50
2022-12-23T09:43:39.363Z,39.35
2022-12-23T09:46:15.100Z,39.28
2022-12-23T09:48:46.143Z,37.65
2022-12-23T09:51:12.880Z,40.40
2022-12-23T09:54:00.853Z,35.22
2022-12-23T09:56:56.564Z,34.58
2022-12-23T09:59:23.018Z,41.45
2022-12-23T10:01:49.490Z,35.47
2022-12-23T10:04:16.075Z,36.63
2022-12-23T10:06:45.513Z,37.63
2022-12-23T10:09:12.712Z,37.35
2022-12-23T10:11:41.584Z,33.78
2022-12-23T10:14:31.360Z,34.67
2022-12-23T10:16:57.723Z,31.20
2022-12-23T10:19:31.672Z,27.75
2022-12-23T10:22:02.916Z,23.50
2022-12-23T10:24:33.601Z,26.00
2022-12-23T10:27:04.908Z,27.30
2022-12-23T10:29:32.422Z,23.63
2022-12-23T10:32:16.884Z,23.42
2022-12-23T10:34:52.835Z,23.33
2022-12-23T10:37:31.692Z,23.88
2022-12-23T10:40:00.850Z,21.55
2022-12-23T10:42:32.745Z,23.05
2022-12-23T10:45:13.553Z,21.90
2022-12-23T10:47:49.427Z,23.48
2022-12-23T10:50:24.805Z,21.83
2022-12-23T10:52:52.815Z,23.15
2022-12-23T10:55:33.119Z,22.60
2022-12-23T10:58:04.263Z,21.17
2022-12-23T11:00:30.749Z,21.85
2022-12-23T11:03:09.914Z,22.20
2022-12-23T11:05:36.572Z,20.77
2022-12-23T11:08:03.317Z,23.05
2022-12-23T11:10:32.956Z,22.75
2022-12-23T11:13:00.366Z,21.67
2022-12-23T11:15:28.842Z,22.83
2022-12-23T11:18:00.943Z,25.15
2022-12-23T11:20:27.335Z,22.25
2022-12-23T11:22:55.515Z,21.65
2022-12-23T11:25:24.668Z,35.20
2022-12-23T11:27:53.815Z,36.47
2022-12-23T11:30:20.190Z,34.65
2022-12-23T11:32:46.609Z,45.90
2022-12-23T11:35:33.237Z,37.90
2022-12-23T11:38:00.916Z,29.35
2022-12-23T11:40:32.025Z,71.75
2022-12-23T11:43:06.057Z,26.80
2022-12-23T11:45:36.911Z,32.58
2022-12-23T11:48:06.830Z,32.35
2022-12-23T11:50:37.611Z,31.90
2022-12-23T11:53:12.038Z,33.05
2022-12-23T11:55:44.697Z,35.15
2022-12-23T11:58:19.973Z,44.67
2022-12-23T12:00:56.754Z,90.30
2022-12-23T12:03:25.010Z,52.65
2022-12-23T12:05:53.244Z,36.42
2022-12-23T12:08:21.888Z,62.53
2022-12-23T12:10:50.940Z,38.08
2022-12-23T12:13:25.983Z,33.50
2022-12-23T12:15:58.527Z,33.67
2022-12-23T12:18:26.339Z,31.63
2022-12-23T12:20:55.051Z,32.88
2022-12-23T12:23:24.619Z,31.73
2022-12-23T12:26:00.240Z,31.80
2022-12-23T12:28:32.739Z,30.80
2022-12-23T12:31:04.888Z,30.70
2022-12-23T12:33:34.868Z,26.73
2022-12-23T12:36:05.634Z,27.48
2022-12-23T12:38:33.306Z,28.58
2022-12-23T12:41:07.389Z,29.67
2022-12-23T12:43:35.063Z,33.72
2022-12-23T12:46:10.859Z,32.45
2022-12-23T12:48:59.928Z,31.02
2022-12-23T12:51:43.474Z,33.15
2022-12-23T12:54:21.127Z,33.42
2022-12-23T12:56:49.777Z,31.02
2022-12-23T12:59:17.786Z,28.92
2022-12-23T13:01:59.376Z,29.00
2022-12-23T13:04:34.817Z,29.83
2022-12-23T13:07:05.263Z,33.00
2022-12-23T13:09:47.075Z,33.83
2022-12-23T13:12:20.317Z,30.83
2022-12-23T13:14:54.219Z,27.73
2022-12-23T13:17:20.736Z,26.75
2022-12-23T13:19:50.851Z,26.73
2022-12-23T13:22:18.340Z,26.10
2022-12-23T13:25:23.428Z,24.38
2022-12-23T13:28:07.996Z,31.98
2022-12-23T13:30:39.169Z,24.48
2022-12-23T13:33:11.343Z,25.40
2022-12-23T13:36:10.198Z,23.60
2022-12-23T13:38:55.077Z,22.88
2022-12-23T13:41:39.934Z,20.53
2022-12-23T13:44:08.402Z,23.90
2022-12-23T13:46:47.376Z,24.50
2022-12-23T13:49:33.511Z,23.65
2022-12-23T13:51:59.906Z,22.00
2022-12-23T13:54:45.109Z,20.98
2022-12-23T13:57:30.638Z,22.17
2022-12-23T14:00:15.816Z,23.45
2022-12-23T14:02:48.681Z,20.33
2022-12-23T14:05:34.005Z,20.55
2022-12-23T14:08:02.087Z,21.92
2022-12-23T14:10:29.107Z,21.00
2022-12-23T14:13:00.719Z,18.90
2022-12-23T14:15:47.174Z,19.45
2022-12-23T14:18:17.913Z,19.13
2022-12-23T14:20:49.234Z,17.10
2022-12-23T14:23:35.973Z,17.40
2022-12-23T14:26:23.689Z,17.88
2022-12-23T14:29:15.123Z,17.35
2022-12-23T14:31:44.240Z,18.92
2022-12-23T14:34:13.437Z,18.17
2022-12-23T14:36:39.894Z,18.40
2022-12-23T14:39:28.432Z,16.67
2022-12-23T14:41:58.753Z,17.73
2022-12-23T14:44:28.114Z,17.25
2022-12-23T14:46:56.059Z,18.10
2022-12-23T14:49:44.035Z,15.73
2022-12-23T14:52:35.853Z,15.25
2022-12-23T14:55:31.625Z,15.80
2022-12-23T14:58:07.236Z,15.70
2022-12-23T15:00:44.806Z,13.77
2022-12-23T15:03:12.229Z,13.13
2022-12-23T15:05:39.911Z,14.15
2022-12-23T15:08:16.402Z,13.32
2022-12-23T15:10:43.350Z,12.07
2022-12-23T15:13:14.062Z,13.82
2022-12-23T15:15:52.610Z,13.18
2022-12-23T15:18:24.068Z,14.68
2022-12-23T15:21:00.851Z,14.77
2022-12-23T15:23:27.434Z,15.40
2022-12-23T15:25:56.009Z,15.38
2022-12-23T15:28:24.296Z,13.95
2022-12-23T15:30:54.855Z,15.73
2022-12-23T15:34:00.562Z,9.57
2022-12-23T15:36:09.918Z,10.00
2022-12-23T15:38:37.608Z,10.07
2022-12-23T15:41:05.851Z,12.55
2022-12-23T15:43:32.452Z,12.88
2022-12-23T15:46:08.373Z,14.25
2022-12-23T15:48:34.838Z,13.40
2022-12-23T15:51:50.079Z,13.73
2022-12-23T15:54:20.256Z,12.90
2022-12-23T15:56:48.530Z,14.77
2022-12-23T15:59:21.189Z,16.40
2022-12-23T16:01:47.828Z,16.48
2022-12-23T16:04:18.437Z,12.82
2022-12-23T16:06:48.969Z,12.30
2022-12-23T16:09:18.080Z,12.63
2022-12-23T16:11:53.675Z,10.55
2022-12-23T16:14:37.623Z,10.18
2022-12-23T16:17:07.069Z,11.10
2022-12-23T16:19:53.489Z,9.10
2022-12-23T16:22:20.156Z,8.48
2022-12-23T16:24:48.524Z,8.70
2022-12-23T16:27:19.702Z,7.90
2022-12-23T16:29:47.092Z,6.53
2022-12-23T16:32:15.327Z,8.10
2022-12-23T16:34:41.826Z,7.47
2022-12-23T16:37:08.391Z,8.52
2022-12-23T16:39:34.781Z,8.65
2022-12-23T16:42:01.152Z,8.30
2022-12-23T16:44:27.525Z,9.20
2022-12-23T16:46:54.169Z,10.68
2022-12-23T16:49:21.340Z,9.27
2022-12-23T16:51:47.925Z,11.73
2022-12-23T16:54:15.978Z,13.63
2022-12-23T16:56:43.123Z,12.23
2022-12-23T16:59:09.936Z,13.95
2022-12-23T17:01:38.165Z,12.68
2022-12-23T17:04:05.390Z,14.70
2022-12-23T17:06:31.784Z,12.30
2022-12-23T17:08:58.312Z,13.88
2022-12-23T17:11:27.813Z,14.40
2022-12-23T17:13:59.622Z,13.07
2022-12-23T17:16:30.063Z,14.18
2022-12-23T17:18:56.570Z,15.68
2022-12-23T17:21:49.467Z,15.40
2022-12-23T17:24:22.134Z,16.00
2022-12-23T17:26:48.497Z,16.27
2022-12-23T17:29:14.957Z,13.90
2022-12-23T17:31:42.157Z,14.15
2022-12-23T17:34:15.927Z,15.40
2022-12-23T17:36:49.272Z,15.40
2022-12-23T17:39:16.633Z,16.67
2022-12-23T17:41:43.383Z,14.82
2022-12-23T17:44:13.313Z,14.85
2022-12-23T17:46:39.665Z,14.70
2022-12-23T17:49:06.425Z,15.60
2022-12-23T17:51:32.822Z,13.73
2022-12-23T17:53:59.840Z,15.85
2022-12-23T17:56:27.675Z,14.65
2022-12-23T17:58:54.101Z,15.60
2022-12-23T18:01:24.633Z,16.30
2022-12-23T18:03:51.153Z,14.82
2022-12-23T18:06:18.875Z,15.85
2022-12-23T18:08:45.597Z,13.88
2022-12-23T18:11:30.627Z,12.82
2022-12-23T18:13:57.091Z,14.88
2022-12-23T18:16:23.473Z,13.82
2022-12-23T18:18:49.957Z,15.23
2022-12-23T18:21:26.863Z,14.55
2022-12-23T18:23:54.831Z,14.45
2022-12-23T18:26:21.232Z,15.98
2022-12-23T18:28:47.643Z,15.20
2022-12-23T18:31:21.774Z,13.40
2022-12-23T18:33:48.181Z,14.38
2022-12-23T18:36:17.887Z,13.45
2022-12-23T18:38:44.262Z,14.35
2022-12-23T18:41:12.137Z,15.77
2022-12-23T18:43:38.537Z,14.90
2022-12-23T18:46:05.322Z,15.10
2022-12-23T18:48:31.752Z,13.63
2022-12-23T18:50:58.454Z,13.30
2022-12-23T18:53:25.448Z,14.35
2022-12-23T18:55:52.726Z,14.13
2022-12-23T18:58:19.333Z,13.57
2022-12-23T19:00:46.303Z,13.88
2022-12-23T19:03:20.818Z,14.07
2022-12-23T19:05:48.390Z,13.73
2022-12-23T19:08:17.844Z,14.60
2022-12-23T19:10:50.854Z,13.05
2022-12-23T19:13:17.451Z,14.00
2022-12-23T19:15:43.892Z,14.73
2022-12-23T19:18:14.391Z,14.23
2022-12-23T19:20:41.522Z,12.48
2022-12-23T19:23:07.970Z,12.60
2022-12-23T19:25:34.349Z,9.43
2022-12-23T19:28:00.701Z,11.07
2022-12-23T19:30:27.102Z,13.68
2022-12-23T19:32:53.975Z,15.18
2022-12-23T19:35:20.996Z,15.30
2022-12-23T19:37:47.410Z,14.88
2022-12-23T19:40:14.311Z,12.18
2022-12-23T19:42:41.211Z,15.18
2022-12-23T19:45:08.641Z,12.73
2022-12-23T19:47:35.223Z,13.30
2022-12-23T19:50:01.671Z,12.98
2022-12-23T19:52:28.271Z,13.13
2022-12-23T19:54:54.866Z,12.57
2022-12-23T19:57:21.397Z,13.25
2022-12-23T19:59:48.067Z,12.00
2022-12-23T20:02:15.623Z,11.15
2022-12-23T20:04:42.456Z,11.45
2022-12-23T20:07:09.299Z,11.32
2022-12-23T20:09:35.807Z,10.88
2022-12-23T20:12:02.283Z,9.05
2022-12-23T20:14:32.284Z,10.18
2022-12-23T20:17:00.874Z,9.68
2022-12-23T20:19:27.364Z,9.82
2022-12-23T20:21:53.766Z,9.65
2022-12-23T20:24:20.228Z,8.55
2022-12-23T20:26:46.613Z,8.57
2022-12-23T20:29:13.029Z,8.90
2022-12-23T20:31:39.538Z,8.73
2022-12-23T20:34:07.032Z,8.65
2022-12-23T20:36:34.493Z,8.15
2022-12-23T20:39:03.299Z,9.05
2022-12-23T20:41:30.200Z,7.53
2022-12-23T20:44:32.522Z,8.02
2022-12-23T20:46:43.086Z,7.15
2022-12-23T20:49:09.546Z,7.15
2022-12-23T20:51:35.954Z,6.65
2022-12-23T20:54:02.503Z,5.53
2022-12-23T20:56:30.573Z,6.47
2022-12-23T20:59:01.464Z,6.88
2022-12-23T21:01:29.899Z,7.00
2022-12-23T21:03:57.488Z,7.55
2022-12-23T21:06:24.560Z,6.57
2022-12-23T21:08:52.254Z,7.55
2022-12-23T21:11:19.082Z,6.43
2022-12-23T21:13:49.089Z,7.40
2022-12-23T21:16:15.920Z,8.82
2022-12-23T21:18:43.310Z,9.15
2022-12-23T21:21:10.113Z,10.07
2022-12-23T21:23:40.129Z,9.55
2022-12-23T21:26:07.698Z,9.50
2022-12-23T21:28:34.188Z,11.32
2022-12-23T21:31:00.622Z,9.52
2022-12-23T21:33:27.070Z,8.98
2022-12-23T21:35:54.168Z,11.10
2022-12-23T21:38:20.586Z,10.95
2022-12-23T21:40:47.767Z,10.23
2022-12-23T21:43:14.157Z,10.77
2022-12-23T21:45:40.545Z,10.73
2022-12-23T21:48:07.129Z,10.02
2022-12-23T21:50:33.685Z,9.10
2022-12-23T21:53:00.049Z,8.77
2022-12-23T21:55:26.476Z,8.10
2022-12-23T21:57:52.861Z,9.32
2022-12-23T22:00:19.355Z,9.15
2022-12-23T22:02:45.747Z,8.75
2022-12-23T22:05:12.123Z,8.32
2022-12-23T22:07:38.486Z,8.98
2022-12-23T22:10:05.075Z,9.70
2022-12-23T22:12:31.468Z,9.13
2022-12-23T22:14:57.990Z,8.10
2022-12-23T22:17:24.385Z,9.15
2022-12-23T22:19:51.082Z,7.60
2022-12-23T22:22:17.444Z,10.18
2022-12-23T22:24:43.777Z,9.27
2022-12-23T22:27:10.175Z,10.27
2022-12-23T22:29:36.550Z,10.10
2022-12-23T22:32:02.992Z,8.93
2022-12-23T22:34:29.396Z,9.65
2022-12-23T22:36:55.831Z,10.15
2022-12-23T22:39:22.793Z,10.30
2022-12-23T22:41:52.508Z,11.00
2022-12-23T22:44:19.377Z,10.48
2022-12-23T22:46:45.977Z,10.65
2022-12-23T22:49:13.101Z,10.43
2022-12-23T22:51:40.117Z,9.43
2022-12-23T22:54:06.598Z,10.07
2022-12-23T22:56:33.048Z,10.75
2022-12-23T22:58:59.461Z,11.65
2022-12-23T23:01:30.667Z,11.65
2022-12-23T23:03:58.260Z,10.60
2022-12-23T23:06:25.819Z,11.32
2022-12-23T23:08:52.454Z,11.07
2022-12-23T23:11:18.864Z,10.18
2022-12-23T23:13:45.199Z,11.10
2022-12-23T23:16:11.760Z,10.00
2022-12-23T23:18:39.458Z,11.02
2022-12-23T23:21:06.827Z,8.40
2022-12-23T23:23:33.211Z,9.63
2022-12-23T23:25:59.627Z,9.88
2022-12-23T23:28:26.055Z,10.07
2022-12-23T23:31:09.637Z,9.60
2022-12-23T23:33:38.931Z,11.43
2022-12-23T23:36:05.788Z,10.48
2022-12-23T23:38:32.391Z,10.35
2022-12-23T23:40:58.780Z,10.32
2022-12-23T23:43:25.148Z,10.32
2022-12-23T23:45:51.629Z,11.93
2022-12-23T23:48:18.394Z,10.13
2022-12-23T23:50:45.178Z,10.32
2022-12-23T23:53:11.902Z,10.57
2022-12-23T23:55:38.395Z,10.75
2022-12-23T23:58:07.756Z,10.88
